sensor_id;sensor_type;location;lat;lon;timestamp;temperature;humidity
18268;DHT22;9260;49.998;19.880;2022-08-16T00:04:56;15.20;99.90
18268;DHT22;9260;49.998;19.880;2022-08-16T00:15:06;15.00;99.90
18268;DHT22;9260;49.998;19.880;2022-08-16T00:25:21;14.90;99.90
18268;DHT22;9260;49.998;19.880;2022-08-16T00:35:45;14.80;99.90
18268;DHT22;9260;49.998;19.880;2022-08-16T00:46:11;14.70;99.90
18268;DHT22;9260;49.998;19.880;2022-08-16T00:56:37;14.50;99.90
18268;DHT22;9260;49.998;19.880;2022-08-16T01:07:03;14.40;99.90
18268;DHT22;9260;49.998;19.880;2022-08-16T01:17:08;14.30;99.90
18268;DHT22;9260;49.998;19.880;2022-08-16T01:27:19;14.30;99.90
18268;DHT22;9260;49.998;19.880;2022-08-16T01:37:26;14.20;99.90
18268;DHT22;9260;49.998;19.880;2022-08-16T01:47:40;14.20;99.90
18268;DHT22;9260;49.998;19.880;2022-08-16T01:57:53;14.10;99.90
18268;DHT22;9260;49.998;19.880;2022-08-16T02:08:00;13.90;99.90
18268;DHT22;9260;49.998;19.880;2022-08-16T02:18:06;13.80;99.90
18268;DHT22;9260;49.998;19.880;2022-08-16T02:28:16;13.70;99.90
18268;DHT22;9260;49.998;19.880;2022-08-16T02:38:21;13.60;99.90
18268;DHT22;9260;49.998;19.880;2022-08-16T02:48:27;13.60;99.90
18268;DHT22;9260;49.998;19.880;2022-08-16T02:58:35;13.50;99.90
18268;DHT22;9260;49.998;19.880;2022-08-16T03:08:42;13.40;99.90
18268;DHT22;9260;49.998;19.880;2022-08-16T03:18:54;13.30;99.90
18268;DHT22;9260;49.998;19.880;2022-08-16T03:29:00;13.30;99.90
18268;DHT22;9260;49.998;19.880;2022-08-16T03:39:04;13.30;99.90
18268;DHT22;9260;49.998;19.880;2022-08-16T03:49:19;13.20;99.90
18268;DHT22;9260;49.998;19.880;2022-08-16T03:59:27;13.20;99.90
18268;DHT22;9260;49.998;19.880;2022-08-16T04:09:41;13.20;99.90
18268;DHT22;9260;49.998;19.880;2022-08-16T04:19:46;13.30;99.90
18268;DHT22;9260;49.998;19.880;2022-08-16T04:29:59;13.40;99.90
18268;DHT22;9260;49.998;19.880;2022-08-16T04:40:11;13.60;99.90
18268;DHT22;9260;49.998;19.880;2022-08-16T04:50:28;13.70;99.90
18268;DHT22;9260;49.998;19.880;2022-08-16T05:00:40;13.90;99.90
18268;DHT22;9260;49.998;19.880;2022-08-16T05:10:51;14.20;99.90
18268;DHT22;9260;49.998;19.880;2022-08-16T05:21:03;14.60;99.90
18268;DHT22;9260;49.998;19.880;2022-08-16T05:31:17;15.00;99.90
18268;DHT22;9260;49.998;19.880;2022-08-16T05:41:22;15.40;99.90
18268;DHT22;9260;49.998;19.880;2022-08-16T05:51:27;16.10;99.90
18268;DHT22;9260;49.998;19.880;2022-08-16T06:01:41;17.10;99.90
18268;DHT22;9260;49.998;19.880;2022-08-16T06:11:48;18.60;99.90
18268;DHT22;9260;49.998;19.880;2022-08-16T06:21:52;20.00;99.90
18268;DHT22;9260;49.998;19.880;2022-08-16T06:31:58;21.20;99.90
18268;DHT22;9260;49.998;19.880;2022-08-16T06:42:05;21.80;99.90
18268;DHT22;9260;49.998;19.880;2022-08-16T06:52:33;22.80;99.90
18268;DHT22;9260;49.998;19.880;2022-08-16T07:02:58;23.40;99.90
18268;DHT22;9260;49.998;19.880;2022-08-16T07:13:24;24.70;99.90
18268;DHT22;9260;49.998;19.880;2022-08-16T07:23:48;26.80;99.90
18268;DHT22;9260;49.998;19.880;2022-08-16T07:34:09;28.50;99.90
18268;DHT22;9260;49.998;19.880;2022-08-16T07:44:13;30.70;99.90
18268;DHT22;9260;49.998;19.880;2022-08-16T07:54:23;33.20;99.90
18268;DHT22;9260;49.998;19.880;2022-08-16T08:04:36;35.70;99.90
18268;DHT22;9260;49.998;19.880;2022-08-16T08:14:42;37.70;99.90
18268;DHT22;9260;49.998;19.880;2022-08-16T08:24:47;39.10;99.90
18268;DHT22;9260;49.998;19.880;2022-08-16T08:35:02;41.00;99.90
18268;DHT22;9260;49.998;19.880;2022-08-16T08:45:11;41.20;99.90
18268;DHT22;9260;49.998;19.880;2022-08-16T08:55:37;41.50;99.90
18268;DHT22;9260;49.998;19.880;2022-08-16T09:05:41;43.10;99.90
18268;DHT22;9260;49.998;19.880;2022-08-16T09:15:55;45.00;99.90
18268;DHT22;9260;49.998;19.880;2022-08-16T09:25:59;47.70;1.00
18268;DHT22;9260;49.998;19.880;2022-08-16T09:36:25;49.40;1.00
18268;DHT22;9260;49.998;19.880;2022-08-16T09:46:34;51.60;1.00
18268;DHT22;9260;49.998;19.880;2022-08-16T09:56:52;52.90;1.00
18268;DHT22;9260;49.998;19.880;2022-08-16T10:06:56;53.90;1.00
18268;DHT22;9260;49.998;19.880;2022-08-16T10:17:06;54.10;1.00
18268;DHT22;9260;49.998;19.880;2022-08-16T10:27:12;54.50;1.00
18268;DHT22;9260;49.998;19.880;2022-08-16T10:37:30;55.30;1.00
18268;DHT22;9260;49.998;19.880;2022-08-16T10:47:42;57.40;1.00
18268;DHT22;9260;49.998;19.880;2022-08-16T10:57:48;58.60;1.00
18268;DHT22;9260;49.998;19.880;2022-08-16T11:07:52;59.20;1.00
18268;DHT22;9260;49.998;19.880;2022-08-16T11:17:57;58.80;1.00
18268;DHT22;9260;49.998;19.880;2022-08-16T11:28:22;59.20;1.00
18268;DHT22;9260;49.998;19.880;2022-08-16T11:38:47;50.80;1.00
18268;DHT22;9260;49.998;19.880;2022-08-16T11:48:59;51.30;1.00
18268;DHT22;9260;49.998;19.880;2022-08-16T11:59:04;57.00;1.00
18268;DHT22;9260;49.998;19.880;2022-08-16T12:09:09;59.40;1.00
18268;DHT22;9260;49.998;19.880;2022-08-16T12:19:15;59.50;1.00
18268;DHT22;9260;49.998;19.880;2022-08-16T12:29:20;50.20;1.00
18268;DHT22;9260;49.998;19.880;2022-08-16T12:39:28;39.50;99.90
18268;DHT22;9260;49.998;19.880;2022-08-16T12:49:33;33.20;99.90
18268;DHT22;9260;49.998;19.880;2022-08-16T12:59:44;30.10;99.90
18268;DHT22;9260;49.998;19.880;2022-08-16T13:09:48;28.10;99.90
18268;DHT22;9260;49.998;19.880;2022-08-16T13:20:00;27.10;99.90
18268;DHT22;9260;49.998;19.880;2022-08-16T13:30:10;26.40;99.90
18268;DHT22;9260;49.998;19.880;2022-08-16T13:40:36;25.80;99.90
18268;DHT22;9260;49.998;19.880;2022-08-16T13:50:40;25.60;99.90
18268;DHT22;9260;49.998;19.880;2022-08-16T14:00:54;25.30;99.90
18268;DHT22;9260;49.998;19.880;2022-08-16T14:10:58;25.30;99.90
18268;DHT22;9260;49.998;19.880;2022-08-16T14:21:03;25.50;99.90
18268;DHT22;9260;49.998;19.880;2022-08-16T14:31:09;25.90;99.90
18268;DHT22;9260;49.998;19.880;2022-08-16T14:41:14;26.40;99.90
18268;DHT22;9260;49.998;19.880;2022-08-16T14:51:18;26.90;99.90
18268;DHT22;9260;49.998;19.880;2022-08-16T15:01:29;27.90;99.90
18268;DHT22;9260;49.998;19.880;2022-08-16T15:11:53;28.50;99.90
18268;DHT22;9260;49.998;19.880;2022-08-16T15:21:58;28.70;99.90
18268;DHT22;9260;49.998;19.880;2022-08-16T15:32:05;28.60;99.90
18268;DHT22;9260;49.998;19.880;2022-08-16T15:42:28;27.40;99.90
18268;DHT22;9260;49.998;19.880;2022-08-16T15:52:35;27.00;99.90
18268;DHT22;9260;49.998;19.880;2022-08-16T16:02:41;26.80;99.90
18268;DHT22;9260;49.998;19.880;2022-08-16T16:12:45;26.40;99.90
18268;DHT22;9260;49.998;19.880;2022-08-16T16:22:57;26.00;99.90
18268;DHT22;9260;49.998;19.880;2022-08-16T16:33:03;25.70;99.90
18268;DHT22;9260;49.998;19.880;2022-08-16T16:43:08;25.50;99.90
18268;DHT22;9260;49.998;19.880;2022-08-16T16:53:16;25.10;99.90
18268;DHT22;9260;49.998;19.880;2022-08-16T17:03:26;25.00;99.90
18268;DHT22;9260;49.998;19.880;2022-08-16T17:13:30;24.90;99.90
18268;DHT22;9260;49.998;19.880;2022-08-16T17:23:36;24.70;99.90
18268;DHT22;9260;49.998;19.880;2022-08-16T17:34:00;24.30;99.90
18268;DHT22;9260;49.998;19.880;2022-08-16T17:44:25;23.80;99.90
18268;DHT22;9260;49.998;19.880;2022-08-16T17:54:30;23.20;99.90
18268;DHT22;9260;49.998;19.880;2022-08-16T18:04:35;22.70;99.90
18268;DHT22;9260;49.998;19.880;2022-08-16T18:14:50;22.10;99.90
18268;DHT22;9260;49.998;19.880;2022-08-16T18:25:04;21.60;99.90
18268;DHT22;9260;49.998;19.880;2022-08-16T18:35:10;21.10;99.90
18268;DHT22;9260;49.998;19.880;2022-08-16T18:45:15;20.70;99.90
18268;DHT22;9260;49.998;19.880;2022-08-16T18:55:20;20.20;99.90
18268;DHT22;9260;49.998;19.880;2022-08-16T19:05:27;19.80;99.90
18268;DHT22;9260;49.998;19.880;2022-08-16T19:15:32;19.50;99.90
18268;DHT22;9260;49.998;19.880;2022-08-16T19:25:39;19.30;99.90
18268;DHT22;9260;49.998;19.880;2022-08-16T19:35:50;19.10;99.90
18268;DHT22;9260;49.998;19.880;2022-08-16T19:45:56;18.90;99.90
18268;DHT22;9260;49.998;19.880;2022-08-16T19:56:00;18.70;99.90
18268;DHT22;9260;49.998;19.880;2022-08-16T20:06:05;18.50;99.90
18268;DHT22;9260;49.998;19.880;2022-08-16T20:16:12;18.30;99.90
18268;DHT22;9260;49.998;19.880;2022-08-16T20:26:18;18.20;99.90
18268;DHT22;9260;49.998;19.880;2022-08-16T20:36:25;18.00;99.90
18268;DHT22;9260;49.998;19.880;2022-08-16T20:46:31;17.90;99.90
18268;DHT22;9260;49.998;19.880;2022-08-16T20:56:40;17.80;99.90
18268;DHT22;9260;49.998;19.880;2022-08-16T21:06:46;17.70;99.90
18268;DHT22;9260;49.998;19.880;2022-08-16T21:16:55;17.60;99.90
18268;DHT22;9260;49.998;19.880;2022-08-16T21:27:01;17.50;99.90
18268;DHT22;9260;49.998;19.880;2022-08-16T21:37:05;17.40;99.90
18268;DHT22;9260;49.998;19.880;2022-08-16T21:47:10;17.20;99.90
18268;DHT22;9260;49.998;19.880;2022-08-16T21:57:15;17.20;99.90
18268;DHT22;9260;49.998;19.880;2022-08-16T22:07:24;17.00;99.90
18268;DHT22;9260;49.998;19.880;2022-08-16T22:17:28;16.90;99.90
18268;DHT22;9260;49.998;19.880;2022-08-16T22:27:33;16.70;99.90
18268;DHT22;9260;49.998;19.880;2022-08-16T22:37:37;16.50;99.90
18268;DHT22;9260;49.998;19.880;2022-08-16T22:48:05;16.50;99.90
18268;DHT22;9260;49.998;19.880;2022-08-16T22:58:08;16.30;99.90
18268;DHT22;9260;49.998;19.880;2022-08-16T23:08:16;16.10;99.90
18268;DHT22;9260;49.998;19.880;2022-08-16T23:18:41;16.00;99.90
18268;DHT22;9260;49.998;19.880;2022-08-16T23:28:46;15.90;99.90
18268;DHT22;9260;49.998;19.880;2022-08-16T23:38:51;15.90;99.90
18268;DHT22;9260;49.998;19.880;2022-08-16T23:48:56;15.90;99.90
18268;DHT22;9260;49.998;19.880;2022-08-16T23:59:20;15.80;99.90
